Tetonia, ID

12:59 AM MDT en Septiembre 03, 2014 (GMT -0600)
Driggs | Change Station
CLOSE
Current Station
Aeropuerto
Location: Driggs,
Altura: 6227 ft
Estaciones meteorológicas cercanas

Alt 6227 ft 43.74 °N, 111.10 °W | Updated 1 hour ago

Clear
Despejado
53 ° F
Sensación térmica 53 ° F
N
7
Viento Variable Viento desde SSE

Hoy
Alta -- | Baja -- ° F
--% Posibilidad de precipitaciones
Ayer
Alta -- | Baja -- ° F
Precip. -- pul
6:50 AM 7:56 PM
Cuarto creciente, 59% visible
Presión 29.71 pul
Visibilidad 10.0 Millas
Nubes Despejado
Punto de rocío 34 ° F
Humedad 49%
Precipitaciones 0.00 pul
Espesor de la nieve No disponible.
UV 0 de una escala de 12
Polen 8.10 de una escala de 12
Calidad del aire No disponible.
Flu Activity No disponible.
METAR KDIJ 030556Z AUTO 15006KT 10SM CLR 12/01 A2994 RMK AO2 58012 T01160011 10227 20111 402380050 SLP059

More Conditions Fewer Conditions

Presión 29.71 pul
Visibilidad 10.0 Millas
Nubes Despejado
Punto de rocío 34 ° F
Humedad 49%
Precipitaciones 0.00 pul
Espesor de la nieve No disponible.
UV 0 de una escala de 12
Polen 8.10 de una escala de 12
Calidad del aire No disponible.
Flu Activity No disponible.
METAR KDIJ 030556Z AUTO 15006KT 10SM CLR 12/01 A2994 RMK AO2 58012 T01160011 10227 20111 402380050 SLP059

More Conditions Fewer Conditions

10-Day Weather Forecast

Almanac

Astronomía

Sep. 03, 2014 Salida Puesta
Hora real 6:50 AM MDT 7:56 PM MDT
Crepúsculo civil 6:20 AM MDT 8:25 PM MDT
Crepúsculo náutico 5:45 AM MDT 9:00 PM MDT
Crepúsculo astronómico 5:08 AM MDT 9:37 PM MDT
Luna 3:47 PM MDT 12:41 AM MDT
Horas de luz 14h 04m
Horas de luz
13h 06m
Tomorrow will be 2m 55s shorter.
Cuarto creciente, 59% of the Moon is Illuminated
Hoy
Cuarto creciente
Sep 8
Luna llena
Sep 15
Cuarto menguante
Sep 24
Nueva
Oct 1
Cuarto creciente

Extremos de hoy

Máximos del estado Bajos del estado

Community

WunderPhotos

Upload Photos

1,749,888 ¡fotos cargadas!

Nearby

Grosos de nieve

Estación Profundido Altura
Sheep Mountain 0 in 6570 ft
Island Park 0 in 6290 ft
Somsen Ranch 1 in 6800 ft
White Elephant 0 in 7710 ft
Wildhorse Divide 0 in 6490 ft

Actividad de terremotos

Ciudad Distance Mag. Tiempo y dato
No hay informes recientes de la actividad sísmica.
Magnitud mínima muestra es 2,5.

Temperaturas de aguas costeras

Lugar Temperatura
Sin partes meteorológicos de las estaciones

Estaciones meteorológicas cercanas